Nearby METAR Reports

 

KCMA - Camarillo, California, USA
Distance from station: WSW 4mi, 7km
Updated: Sun, 18-Feb-2018 12:55am PST
Clear
Clear
 Wind from calm
Wind: Calm
Temperature: 46°F , 8°C
Dew Point: 36°F , 2°C
Humidity: 66%
Barometer: 30.01 inHg , 1016.3 hPa
Clouds: Clear
Visibility: 10 miles , 16 km
2018/02/18 08:55 KCMA 180855Z AUTO 00000KT 10SM CLR 08/02 A3001 RMK AO2 SLP171 T00780022 56009
KNTD - Point Mugu Nas, California, USA
Distance from station: SSW 9mi, 15km
Updated: Sun, 18-Feb-2018 12:58am PST
Clear
Clear
 Wind from N
Wind: N 6 mph , 9 km/h
Temperature: 46°F , 8°C
Wind Chill: 43°F , 6°C
Dew Point: 39°F , 4°C
Humidity: 76%
Barometer: 30.03 inHg , 1016.9 hPa
Clouds: Clear
Visibility: 10 miles , 16 km
2018/02/18 08:58 KNTD 180858Z AUTO 36005KT 10SM CLR 08/04 A3003 RMK AO2 SLP168 T00830039 56008 PWINO $
 
KOXR - Oxnard, California, USA
Distance from station: WSW 10mi, 16km
Updated: Sun, 18-Feb-2018 12:51am PST
Clear
Clear
 Wind from NE
Wind: NE 5 mph , 7 km/h
Temperature: 50°F , 10°C
Wind Chill: 48°F , 9°C
Dew Point: 37°F , 3°C
Humidity: 62%
Barometer: 30.01 inHg , 1016.3 hPa
Clouds: Clear
Visibility: 10 miles , 16 km
2018/02/18 08:51 KOXR 180851Z AUTO 04004KT 10SM CLR 10/03 A3001 RMK AO2 SLP162 T01000028 57009
KVNY - Van Nuys, California, USA
Distance from station: E 31mi, 50km
Updated: Sun, 18-Feb-2018 12:51am PST
Clear
Clear
 Wind from calm
Wind: Calm
Temperature: 52°F , 11°C
Dew Point: 34°F , 1°C
Humidity: 50%
Barometer: 30.02 inHg , 1016.6 hPa
Clouds: Clear
Visibility: 10 miles , 16 km
2018/02/18 08:51 KVNY 180851Z 00000KT 10SM CLR 11/01 A3002 RMK AO2 SLP159 T01060006 58005
 
KWHP - La / Whiteman, California, USA
Distance from station: E 35mi, 56km
Updated: Sat, 17-Feb-2018 7:53pm PST
NOT Current
Clear
Clear
 Wind from calm
Wind: Calm
Temperature: 63°F , 17°C
Dew Point: 32°F , 0°C
Humidity: 32%
Barometer: 30.08 inHg , 1018.6 hPa
Clouds: Clear
Visibility: 10 miles , 16 km
2018/02/18 03:53 KWHP 180353Z 00000KT 10SM SKC 17/00 A3008
KSMO - Santa Monica, California, USA
Distance from station: ESE 36mi, 58km
Updated: Sun, 18-Feb-2018 12:58am PST
Partly cloudy
Partly cloudy
 Wind from NE
Wind: NE 5 mph , 7 km/h
Temperature: 52°F , 11°C
Dew Point: 45°F , 7°C
Humidity: 77%
Barometer: 30.02 inHg , 1016.6 hPa
Clouds: Partly cloudy
Visibility: 10 miles , 16 km
Cloud details: Partly cloudy 500 ft
2018/02/18 08:58 KSMO 180858Z AUTO 05004KT 10SM SCT005 11/07 A3002 RMK AO2 T01110067
 
KBUR - Burbank, California, USA
Distance from station: E 38mi, 61km
Updated: Sun, 18-Feb-2018 12:53am PST
Clear
Clear
 Wind from calm
Wind: Calm
Temperature: 52°F , 11°C
Dew Point: 34°F , 1°C
Humidity: 50%
Barometer: 30.02 inHg , 1016.6 hPa
Clouds: Clear
Visibility: 10 miles , 16 km
2018/02/18 08:53 KBUR 180853Z 00000KT 10SM CLR 11/01 A3002 RMK AO2 SLP156 T01110011 58005
KSDB - Sandberg, California, USA
Distance from station: NNE 40mi, 64km
Updated: Sun, 18-Feb-2018 12:53am PST
Clear
Clear
 Wind from W
Wind: W 7 mph , 11 km/h
Temperature: 45°F , 7°C
Wind Chill: 41°F , 5°C
Dew Point: 23°F , -5°C
Humidity: 42%
Barometer: 30.06 inHg , 1017.9 hPa
Clouds: Clear
Visibility: 10 miles , 16 km
2018/02/18 08:53 KSDB 180853Z AUTO 28006KT 10SM CLR 07/M05 A3006 RMK AO2 SLP147 T00721050 57011
 
KLAX - Los Angeles, California, USA
Distance from station: ESE 42mi, 68km
Updated: Sun, 18-Feb-2018 12:53am PST
Partly cloudy
Partly cloudy
 Wind from SW
Wind: SW 5 mph , 7 km/h
Temperature: 57°F , 14°C
Dew Point: 55°F , 13°C
Humidity: 94%
Barometer: 30.03 inHg , 1016.9 hPa
Clouds: Partly cloudy
Visibility: 10 miles , 16 km
Cloud details: Partly cloudy 700 ft
2018/02/18 08:53 KLAX 180853Z 23004KT 10SM SCT007 14/13 A3003 RMK AO2 SLP165 T01440133 58003
KCQT - Los Angeles, California, USA
Distance from station: ESE 45mi, 73km
Updated: Sun, 18-Feb-2018 12:47am PST
Clear
Clear
 Wind from calm
Wind: Calm
Temperature: 54°F , 12°C
Dew Point: 46°F , 8°C
Humidity: 77%
Barometer: 30.02 inHg , 1016.6 hPa
Clouds: Clear
Visibility: 10 miles , 16 km
2018/02/18 08:47 KCQT 180847Z AUTO 00000KT 10SM CLR 12/08 A3002 RMK AO2 SLP165 T01220083 58001
 
KHHR - Hawthorne, California, USA
Distance from station: ESE 45mi, 73km
Updated: Sun, 18-Feb-2018 12:53am PST
Clear
Clear
 Wind from calm
Wind: Calm
Temperature: 55°F , 13°C
Dew Point: 50°F , 10°C
Humidity: 82%
Barometer: 30.03 inHg , 1016.9 hPa
Clouds: Clear
Visibility: 10 miles , 16 km
2018/02/18 08:53 KHHR 180853Z AUTO 00000KT 10SM CLR 13/10 A3003 RMK AO2 SLP168 T01330100 58001
KSBA - Santa Barbara, California, USA
Distance from station: WNW 49mi, 79km
Updated: Sun, 18-Feb-2018 12:53am PST
Clear
Clear
 Wind from calm
Wind: Calm
Temperature: 43°F , 6°C
Dew Point: 36°F , 2°C
Humidity: 76%
Barometer: 30.01 inHg , 1016.3 hPa
Clouds: Clear
Visibility: 10 miles , 16 km
2018/02/18 08:53 KSBA 180853Z 00000KT 10SM CLR 06/02 A3001 RMK AO2 SLP161 T00610017 58008